Time;durP1;ratioP1;P1;durP2;ratioP2;P2;SDS_P1;SDS_P2;PMS_P1;PMS_P2;Temp;Humidity;BMP_temperature;BMP_pressure;BME280_temperature;BME280_humidity;BME280_pressure;Samples;Min_cycle;Max_cycle;Signal;HPM_P1;HPM_P2
2021/07/23 00:00:35;;;;;;;6.6;6.0;;;;;;;18.6;52.8;101840;;;;
2021/07/23 00:10:35;;;;;;;6.6;6.0;;;;;;;18.4;53.8;101830;;;;
2021/07/23 00:12:35;;;;;;;6.6;6.0;;;;;;;18.5;52.9;101830;;;;
2021/07/23 00:14:35;;;;;;;6.6;6.0;;;;;;;18.4;53.7;101830;;;;
2021/07/23 00:18:35;;;;;;;6.6;6.0;;;;;;;18.3;53.6;101830;;;;
2021/07/23 00:20:35;;;;;;;7.5;6.7;;;;;;;18.2;54.0;101830;;;;
2021/07/23 00:22:35;;;;;;;7.5;6.7;;;;;;;18.0;54.5;101830;;;;
2021/07/23 00:24:35;;;;;;;7.5;6.7;;;;;;;18.1;54.0;101830;;;;
2021/07/23 00:26:35;;;;;;;7.5;6.7;;;;;;;18.2;53.8;101830;;;;
2021/07/23 00:28:35;;;;;;;7.5;6.7;;;;;;;18.1;54.3;101830;;;;
2021/07/23 00:30:35;;;;;;;7.5;6.7;;;;;;;18.2;53.0;101830;;;;
2021/07/23 00:32:35;;;;;;;7.5;6.7;;;;;;;18.1;53.8;101830;;;;
2021/07/23 00:34:35;;;;;;;7.5;6.7;;;;;;;18.2;53.6;101830;;;;
2021/07/23 00:36:35;;;;;;;7.5;6.7;;;;;;;18.0;53.7;101830;;;;
2021/07/23 00:38:35;;;;;;;7.5;6.7;;;;;;;18.1;53.6;101830;;;;
2021/07/23 00:42:36;;;;;;;7.8;7.1;;;;;;;18.0;54.3;101830;;;;
2021/07/23 00:46:35;;;;;;;7.8;7.1;;;;;;;17.9;54.3;101830;;;;
2021/07/23 00:50:35;;;;;;;7.8;7.1;;;;;;;17.8;54.1;101830;;;;
2021/07/23 00:54:35;;;;;;;7.8;7.1;;;;;;;17.6;56.4;101820;;;;
2021/07/23 00:56:35;;;;;;;7.8;7.1;;;;;;;17.5;55.9;101820;;;;
2021/07/23 00:58:35;;;;;;;7.8;7.1;;;;;;;17.4;56.4;101820;;;;
2021/07/23 01:04:35;;;;;;;8.4;7.6;;;;;;;17.5;55.5;101820;;;;
2021/07/23 01:18:36;;;;;;;8.4;7.6;;;;;;;17.6;54.8;101810;;;;
2021/07/23 01:20:35;;;;;;;7.4;6.7;;;;;;;17.7;54.2;101810;;;;
2021/07/23 01:22:35;;;;;;;7.4;6.7;;;;;;;17.5;54.9;101810;;;;
2021/07/23 01:26:35;;;;;;;7.4;6.7;;;;;;;17.6;54.4;101810;;;;
2021/07/23 01:28:35;;;;;;;7.4;6.7;;;;;;;17.4;54.9;101810;;;;
2021/07/23 01:30:35;;;;;;;7.4;6.7;;;;;;;17.3;55.1;101810;;;;
2021/07/23 01:32:35;;;;;;;7.4;6.7;;;;;;;17.4;55.4;101810;;;;
2021/07/23 01:34:36;;;;;;;7.4;6.7;;;;;;;17.5;54.5;101810;;;;
2021/07/23 01:38:35;;;;;;;7.4;6.7;;;;;;;17.4;55.0;101810;;;;
2021/07/23 01:48:35;;;;;;;7.4;6.7;;;;;;;17.3;55.7;101810;;;;
2021/07/23 01:50:35;;;;;;;7.4;6.7;;;;;;;17.4;54.4;101810;;;;
2021/07/23 01:52:36;;;;;;;7.4;6.7;;;;;;;17.3;54.8;101810;;;;
2021/07/23 01:54:35;;;;;;;7.4;6.7;;;;;;;17.1;56.3;101810;;;;
2021/07/23 01:56:35;;;;;;;7.4;6.7;;;;;;;17.2;55.3;101810;;;;
2021/07/23 02:00:35;;;;;;;8.3;7.6;;;;;;;17.3;54.4;101810;;;;
2021/07/23 02:02:36;;;;;;;8.3;7.6;;;;;;;17.2;54.9;101810;;;;
2021/07/23 02:04:35;;;;;;;8.3;7.6;;;;;;;17.3;54.9;101810;;;;
2021/07/23 02:06:35;;;;;;;8.3;7.6;;;;;;;17.2;55.0;101810;;;;
2021/07/23 02:08:35;;;;;;;8.3;7.6;;;;;;;17.1;55.5;101800;;;;
2021/07/23 02:10:35;;;;;;;8.3;7.6;;;;;;;17.0;55.5;101800;;;;
2021/07/23 02:12:35;;;;;;;8.3;7.6;;;;;;;17.1;56.8;101800;;;;
2021/07/23 02:16:35;;;;;;;8.3;7.6;;;;;;;17.0;56.3;101800;;;;
2021/07/23 02:18:35;;;;;;;8.3;7.6;;;;;;;17.1;55.2;101800;;;;
2021/07/23 02:22:35;;;;;;;8.4;7.6;;;;;;;17.0;55.3;101800;;;;
2021/07/23 02:32:35;;;;;;;8.4;7.6;;;;;;;16.9;55.8;101790;;;;
2021/07/23 02:34:35;;;;;;;8.4;7.6;;;;;;;16.8;56.4;101790;;;;
2021/07/23 02:36:35;;;;;;;8.4;7.6;;;;;;;16.7;56.3;101790;;;;
2021/07/23 02:44:35;;;;;;;8.2;7.4;;;;;;;16.8;55.5;101790;;;;
2021/07/23 02:48:35;;;;;;;8.2;7.4;;;;;;;16.7;56.8;101790;;;;
2021/07/23 02:52:36;;;;;;;8.2;7.4;;;;;;;16.6;57.3;101790;;;;
2021/07/23 02:54:35;;;;;;;8.2;7.4;;;;;;;16.5;57.9;101790;;;;
2021/07/23 02:58:35;;;;;;;8.2;7.4;;;;;;;16.6;55.7;101790;;;;
2021/07/23 03:00:35;;;;;;;9.0;7.9;;;;;;;16.5;58.0;101790;;;;
2021/07/23 03:04:35;;;;;;;9.0;7.9;;;;;;;16.4;56.1;101780;;;;
2021/07/23 03:06:35;;;;;;;9.0;7.9;;;;;;;16.6;55.9;101780;;;;
2021/07/23 03:08:36;;;;;;;9.0;7.9;;;;;;;16.5;55.9;101790;;;;
2021/07/23 03:12:35;;;;;;;9.0;7.9;;;;;;;16.4;57.3;101790;;;;
2021/07/23 03:20:35;;;;;;;10.3;8.5;;;;;;;16.3;57.4;101780;;;;
2021/07/23 03:22:35;;;;;;;10.3;8.5;;;;;;;16.2;58.1;101780;;;;
2021/07/23 03:32:35;;;;;;;10.3;8.5;;;;;;;16.3;56.6;101770;;;;
2021/07/23 03:36:36;;;;;;;10.3;8.5;;;;;;;16.1;57.8;101770;;;;
2021/07/23 03:38:35;;;;;;;10.3;8.5;;;;;;;16.2;57.5;101770;;;;
2021/07/23 03:46:36;;;;;;;10.2;8.9;;;;;;;16.1;56.8;101770;;;;
2021/07/23 03:48:35;;;;;;;10.2;8.9;;;;;;;16.0;57.2;101760;;;;
2021/07/23 03:56:35;;;;;;;10.2;8.9;;;;;;;15.9;57.5;101760;;;;
2021/07/23 03:58:36;;;;;;;10.2;8.9;;;;;;;16.1;56.9;101760;;;;
2021/07/23 04:00:35;;;;;;;10.3;9.3;;;;;;;15.9;58.4;101760;;;;
2021/07/23 04:02:36;;;;;;;10.3;9.3;;;;;;;16.0;57.6;101760;;;;
2021/07/23 04:06:35;;;;;;;10.3;9.3;;;;;;;15.8;58.7;101760;;;;
2021/07/23 04:08:36;;;;;;;10.3;9.3;;;;;;;15.9;58.5;101760;;;;
2021/07/23 04:12:36;;;;;;;10.3;9.3;;;;;;;15.7;58.3;101760;;;;
2021/07/23 04:16:36;;;;;;;10.3;9.3;;;;;;;15.8;58.6;101760;;;;
2021/07/23 04:20:35;;;;;;;10.7;9.6;;;;;;;15.7;59.1;101760;;;;
2021/07/23 04:22:35;;;;;;;10.7;9.6;;;;;;;16.0;57.4;101760;;;;
2021/07/23 04:24:37;;;;;;;10.7;9.6;;;;;;;15.9;56.8;101760;;;;
2021/07/23 04:30:35;;;;;;;10.7;9.6;;;;;;;15.8;58.2;101760;;;;
2021/07/23 04:32:35;;;;;;;10.7;9.6;;;;;;;15.6;60.1;101760;;;;
2021/07/23 04:34:35;;;;;;;10.7;9.6;;;;;;;15.7;58.5;101750;;;;
2021/07/23 04:36:35;;;;;;;10.7;9.6;;;;;;;15.8;57.4;101750;;;;
2021/07/23 04:38:35;;;;;;;11.2;10.1;;;;;;;15.9;58.5;101750;;;;
2021/07/23 04:44:35;;;;;;;11.2;10.1;;;;;;;15.8;57.8;101750;;;;
2021/07/23 04:46:36;;;;;;;11.2;10.1;;;;;;;15.7;59.4;101750;;;;
2021/07/23 04:50:35;;;;;;;11.2;10.1;;;;;;;15.8;58.7;101760;;;;
2021/07/23 04:56:35;;;;;;;11.2;10.1;;;;;;;15.7;59.8;101760;;;;
2021/07/23 04:58:35;;;;;;;10.9;9.9;;;;;;;15.5;60.4;101760;;;;
2021/07/23 05:00:36;;;;;;;10.9;9.9;;;;;;;15.8;59.1;101760;;;;
2021/07/23 05:04:36;;;;;;;10.9;9.9;;;;;;;15.7;60.2;101760;;;;
2021/07/23 05:06:35;;;;;;;10.9;9.9;;;;;;;15.6;60.1;101760;;;;
2021/07/23 05:08:35;;;;;;;10.9;9.9;;;;;;;15.8;59.3;101760;;;;
2021/07/23 05:10:35;;;;;;;10.9;9.9;;;;;;;15.7;59.6;101760;;;;
2021/07/23 05:12:35;;;;;;;10.9;9.9;;;;;;;15.6;61.0;101760;;;;
2021/07/23 05:16:36;;;;;;;10.9;9.9;;;;;;;15.7;60.1;101750;;;;
2021/07/23 05:18:35;;;;;;;11.1;9.8;;;;;;;15.9;59.0;101760;;;;
2021/07/23 05:20:35;;;;;;;11.1;9.8;;;;;;;15.8;58.7;101760;;;;
2021/07/23 05:26:36;;;;;;;11.1;9.8;;;;;;;15.9;59.3;101750;;;;
2021/07/23 05:30:35;;;;;;;11.1;9.8;;;;;;;16.0;60.8;101750;;;;
2021/07/23 05:34:35;;;;;;;11.1;9.8;;;;;;;15.9;60.2;101750;;;;
2021/07/23 05:36:35;;;;;;;11.1;9.8;;;;;;;15.8;61.3;101750;;;;
2021/07/23 05:38:35;;;;;;;11.3;10.2;;;;;;;15.9;61.8;101750;;;;
2021/07/23 05:40:35;;;;;;;11.3;10.2;;;;;;;16.0;61.4;101750;;;;
2021/07/23 05:44:35;;;;;;;11.3;10.2;;;;;;;16.2;60.1;101750;;;;
2021/07/23 05:46:36;;;;;;;11.3;10.2;;;;;;;16.1;60.8;101750;;;;
2021/07/23 05:48:36;;;;;;;11.3;10.2;;;;;;;16.2;60.4;101750;;;;
2021/07/23 05:50:35;;;;;;;11.3;10.2;;;;;;;16.4;60.0;101750;;;;
2021/07/23 05:54:36;;;;;;;11.3;10.2;;;;;;;16.3;59.8;101750;;;;
2021/07/23 05:56:35;;;;;;;11.3;10.2;;;;;;;16.4;60.1;101740;;;;
2021/07/23 06:02:36;;;;;;;11.1;10.0;;;;;;;16.5;61.5;101750;;;;
2021/07/23 06:04:35;;;;;;;11.1;10.0;;;;;;;16.4;61.1;101740;;;;
2021/07/23 06:06:41;;;;;;;11.1;10.0;;;;;;;16.5;60.0;101740;;;;
2021/07/23 06:10:36;;;;;;;11.1;10.0;;;;;;;16.6;61.5;101740;;;;
2021/07/23 06:14:35;;;;;;;11.1;10.0;;;;;;;16.7;61.0;101740;;;;
2021/07/23 06:16:36;;;;;;;11.1;10.0;;;;;;;16.5;61.3;101750;;;;
2021/07/23 06:20:35;;;;;;;10.4;9.4;;;;;;;16.6;59.6;101740;;;;
2021/07/23 06:22:35;;;;;;;10.4;9.4;;;;;;;16.9;60.4;101750;;;;
2021/07/23 06:26:35;;;;;;;10.4;9.4;;;;;;;17.0;60.7;101740;;;;
2021/07/23 06:28:35;;;;;;;10.4;9.4;;;;;;;16.9;60.7;101740;;;;
2021/07/23 06:34:36;;;;;;;10.4;9.4;;;;;;;17.0;61.3;101740;;;;
2021/07/23 06:36:35;;;;;;;10.4;9.4;;;;;;;16.9;61.3;101740;;;;
2021/07/23 06:38:36;;;;;;;9.8;8.8;;;;;;;17.1;61.1;101730;;;;
2021/07/23 06:40:37;;;;;;;9.8;8.8;;;;;;;17.2;60.1;101730;;;;
2021/07/23 06:42:36;;;;;;;9.8;8.8;;;;;;;17.3;61.1;101740;;;;
2021/07/23 06:44:35;;;;;;;9.8;8.8;;;;;;;17.5;60.3;101740;;;;
2021/07/23 06:52:35;;;;;;;9.8;8.8;;;;;;;17.7;58.8;101740;;;;
2021/07/23 06:54:36;;;;;;;9.8;8.8;;;;;;;17.9;59.4;101750;;;;
2021/07/23 06:56:35;;;;;;;9.8;8.8;;;;;;;17.6;59.8;101740;;;;
2021/07/23 06:58:36;;;;;;;8.6;7.7;;;;;;;17.8;59.1;101740;;;;
2021/07/23 07:00:36;;;;;;;8.6;7.7;;;;;;;17.9;58.8;101740;;;;
2021/07/23 07:02:35;;;;;;;8.6;7.7;;;;;;;18.0;58.6;101740;;;;
2021/07/23 07:04:37;;;;;;;8.6;7.7;;;;;;;17.9;58.8;101740;;;;
2021/07/23 07:06:36;;;;;;;8.6;7.7;;;;;;;18.1;57.5;101740;;;;
2021/07/23 07:12:36;;;;;;;8.6;7.7;;;;;;;18.0;58.2;101750;;;;
2021/07/23 07:14:36;;;;;;;8.6;7.7;;;;;;;18.1;58.5;101750;;;;
2021/07/23 07:18:35;;;;;;;9.1;7.7;;;;;;;18.2;57.8;101750;;;;
2021/07/23 07:20:35;;;;;;;9.1;7.7;;;;;;;18.3;57.5;101740;;;;
2021/07/23 07:22:36;;;;;;;9.1;7.7;;;;;;;18.4;57.0;101750;;;;
2021/07/23 07:24:35;;;;;;;9.1;7.7;;;;;;;18.3;56.8;101740;;;;
2021/07/23 07:26:36;;;;;;;9.1;7.7;;;;;;;18.4;57.0;101750;;;;
2021/07/23 07:30:35;;;;;;;9.1;7.7;;;;;;;18.6;56.5;101750;;;;
2021/07/23 07:32:35;;;;;;;9.1;7.7;;;;;;;18.8;56.4;101750;;;;
2021/07/23 07:34:36;;;;;;;9.1;7.7;;;;;;;18.6;56.3;101750;;;;
2021/07/23 07:36:36;;;;;;;9.1;7.7;;;;;;;18.7;56.0;101740;;;;
2021/07/23 07:38:37;;;;;;;7.5;6.7;;;;;;;18.8;55.3;101740;;;;
2021/07/23 07:42:38;;;;;;;7.5;6.7;;;;;;;18.6;56.0;101740;;;;
2021/07/23 07:44:35;;;;;;;7.5;6.7;;;;;;;18.8;55.9;101740;;;;
2021/07/23 07:48:35;;;;;;;7.5;6.7;;;;;;;19.1;55.7;101730;;;;
2021/07/23 07:52:35;;;;;;;7.5;6.7;;;;;;;19.3;54.7;101740;;;;
2021/07/23 07:56:35;;;;;;;7.5;6.7;;;;;;;19.2;54.8;101740;;;;
2021/07/23 08:00:36;;;;;;;6.7;6.1;;;;;;;19.1;54.4;101740;;;;
2021/07/23 08:04:35;;;;;;;6.7;6.1;;;;;;;19.2;54.7;101740;;;;
2021/07/23 08:08:36;;;;;;;6.7;6.1;;;;;;;19.1;54.1;101730;;;;
2021/07/23 08:10:36;;;;;;;6.7;6.1;;;;;;;19.2;54.2;101730;;;;
2021/07/23 08:12:35;;;;;;;6.7;6.1;;;;;;;19.4;54.1;101730;;;;
2021/07/23 08:14:36;;;;;;;6.7;6.1;;;;;;;19.3;54.3;101730;;;;
2021/07/23 08:16:36;;;;;;;6.7;6.1;;;;;;;19.4;54.2;101730;;;;
2021/07/23 08:18:35;;;;;;;7.4;6.7;;;;;;;19.5;53.7;101730;;;;
2021/07/23 08:20:37;;;;;;;7.4;6.7;;;;;;;19.4;53.6;101720;;;;
2021/07/23 08:22:35;;;;;;;7.4;6.7;;;;;;;19.5;53.7;101720;;;;
2021/07/23 08:24:35;;;;;;;7.4;6.7;;;;;;;19.6;53.4;101720;;;;
2021/07/23 08:26:35;;;;;;;7.4;6.7;;;;;;;19.7;53.0;101720;;;;
2021/07/23 08:28:36;;;;;;;7.4;6.7;;;;;;;19.8;52.9;101720;;;;
2021/07/23 08:38:35;;;;;;;5.9;5.3;;;;;;;20.0;52.1;101720;;;;
2021/07/23 08:40:36;;;;;;;5.9;5.3;;;;;;;20.1;51.8;101720;;;;
2021/07/23 08:42:36;;;;;;;5.9;5.3;;;;;;;20.3;51.3;101710;;;;
2021/07/23 08:44:35;;;;;;;5.9;5.3;;;;;;;20.4;51.2;101710;;;;
2021/07/23 08:46:36;;;;;;;5.9;5.3;;;;;;;20.6;51.4;101710;;;;
2021/07/23 08:48:35;;;;;;;5.9;5.3;;;;;;;20.5;50.6;101710;;;;
2021/07/23 08:50:35;;;;;;;5.9;5.3;;;;;;;20.7;51.1;101710;;;;
2021/07/23 08:54:35;;;;;;;5.9;5.3;;;;;;;20.3;50.7;101710;;;;
2021/07/23 08:56:35;;;;;;;5.9;5.3;;;;;;;20.5;50.7;101710;;;;
2021/07/23 09:00:36;;;;;;;6.7;6.1;;;;;;;20.4;50.6;101710;;;;
2021/07/23 09:02:36;;;;;;;6.7;6.1;;;;;;;20.6;50.6;101700;;;;
2021/07/23 09:04:36;;;;;;;6.7;6.1;;;;;;;20.5;50.8;101690;;;;
2021/07/23 09:06:35;;;;;;;6.7;6.1;;;;;;;20.8;50.1;101690;;;;
2021/07/23 09:10:36;;;;;;;6.7;6.1;;;;;;;20.7;50.1;101690;;;;
2021/07/23 09:12:35;;;;;;;6.7;6.1;;;;;;;21.0;49.5;101690;;;;
2021/07/23 09:14:35;;;;;;;6.7;6.1;;;;;;;20.8;49.3;101690;;;;
2021/07/23 09:16:36;;;;;;;6.7;6.1;;;;;;;20.9;49.6;101690;;;;
2021/07/23 09:24:35;;;;;;;6.5;5.7;;;;;;;20.7;49.7;101680;;;;
2021/07/23 09:28:35;;;;;;;6.5;5.7;;;;;;;21.0;49.0;101670;;;;
2021/07/23 09:32:36;;;;;;;6.5;5.7;;;;;;;21.1;48.7;101670;;;;
2021/07/23 09:34:36;;;;;;;6.5;5.7;;;;;;;21.3;48.3;101660;;;;
2021/07/23 09:36:45;;;;;;;6.5;5.7;;;;;;;21.5;48.3;101660;;;;
2021/07/23 09:40:35;;;;;;;6.6;5.3;;;;;;;21.1;47.9;101660;;;;
2021/07/23 09:42:35;;;;;;;6.6;5.3;;;;;;;21.3;48.1;101650;;;;
2021/07/23 09:44:35;;;;;;;6.6;5.3;;;;;;;21.2;48.2;101650;;;;
2021/07/23 09:46:36;;;;;;;6.6;5.3;;;;;;;21.5;48.3;101650;;;;
2021/07/23 09:48:35;;;;;;;6.6;5.3;;;;;;;21.4;48.6;101650;;;;
2021/07/23 09:52:35;;;;;;;6.6;5.3;;;;;;;21.5;47.8;101640;;;;
2021/07/23 09:54:36;;;;;;;6.6;5.3;;;;;;;21.6;48.4;101640;;;;
2021/07/23 09:58:35;;;;;;;6.7;5.7;;;;;;;21.7;48.7;101650;;;;
2021/07/23 10:00:36;;;;;;;6.7;5.7;;;;;;;21.5;48.7;101640;;;;
2021/07/23 10:02:36;;;;;;;6.7;5.7;;;;;;;21.7;49.2;101640;;;;
2021/07/23 10:06:35;;;;;;;6.7;5.7;;;;;;;21.6;47.4;101640;;;;
2021/07/23 10:08:37;;;;;;;6.7;5.7;;;;;;;21.5;47.8;101640;;;;
2021/07/23 10:10:35;;;;;;;6.7;5.7;;;;;;;21.6;47.4;101640;;;;
2021/07/23 10:12:35;;;;;;;6.7;5.7;;;;;;;21.9;47.8;101630;;;;
2021/07/23 10:16:35;;;;;;;6.7;5.7;;;;;;;21.8;47.1;101630;;;;
2021/07/23 10:18:35;;;;;;;6.3;5.7;;;;;;;21.9;47.4;101630;;;;
2021/07/23 10:20:35;;;;;;;6.3;5.7;;;;;;;22.0;49.0;101630;;;;
2021/07/23 10:22:36;;;;;;;6.3;5.7;;;;;;;22.2;46.5;101630;;;;
2021/07/23 10:24:36;;;;;;;6.3;5.7;;;;;;;22.3;46.6;101630;;;;
2021/07/23 10:26:36;;;;;;;6.3;5.7;;;;;;;22.4;48.8;101630;;;;
2021/07/23 10:28:41;;;;;;;6.3;5.7;;;;;;;22.6;46.8;101630;;;;
2021/07/23 10:30:36;;;;;;;6.3;5.7;;;;;;;22.5;46.7;101620;;;;
2021/07/23 10:32:36;;;;;;;6.3;5.7;;;;;;;22.7;47.3;101630;;;;
2021/07/23 10:34:36;;;;;;;6.3;5.7;;;;;;;22.6;45.4;101630;;;;
2021/07/23 10:38:35;;;;;;;7.6;5.8;;;;;;;22.7;46.7;101620;;;;
2021/07/23 10:40:36;;;;;;;7.6;5.8;;;;;;;22.5;45.4;101620;;;;
2021/07/23 10:42:36;;;;;;;7.6;5.8;;;;;;;22.9;45.3;101620;;;;
2021/07/23 10:44:37;;;;;;;7.6;5.8;;;;;;;22.8;45.3;101620;;;;
2021/07/23 10:46:37;;;;;;;7.6;5.8;;;;;;;22.9;44.9;101620;;;;
2021/07/23 10:48:35;;;;;;;7.6;5.8;;;;;;;22.4;45.3;101620;;;;
2021/07/23 10:52:37;;;;;;;7.6;5.8;;;;;;;22.6;44.5;101610;;;;
2021/07/23 10:54:36;;;;;;;7.6;5.8;;;;;;;22.7;45.6;101610;;;;
2021/07/23 10:56:35;;;;;;;7.6;5.8;;;;;;;22.6;47.3;101610;;;;
2021/07/23 10:58:36;;;;;;;6.2;5.6;;;;;;;22.8;47.4;101600;;;;
2021/07/23 11:00:36;;;;;;;6.2;5.6;;;;;;;23.1;48.2;101600;;;;
2021/07/23 11:04:35;;;;;;;6.2;5.6;;;;;;;23.2;47.0;101590;;;;
2021/07/23 11:08:36;;;;;;;6.2;5.6;;;;;;;23.3;46.9;101580;;;;
2021/07/23 11:10:35;;;;;;;6.2;5.6;;;;;;;23.2;44.9;101580;;;;
2021/07/23 11:12:37;;;;;;;6.2;5.6;;;;;;;23.1;45.5;101580;;;;
2021/07/23 11:16:36;;;;;;;6.2;5.6;;;;;;;23.0;45.6;101580;;;;
2021/07/23 11:18:35;;;;;;;6.7;6.0;;;;;;;23.2;47.5;101580;;;;
2021/07/23 11:20:37;;;;;;;6.7;6.0;;;;;;;23.4;47.7;101570;;;;
2021/07/23 11:22:36;;;;;;;6.7;6.0;;;;;;;23.1;46.4;101570;;;;
2021/07/23 11:24:36;;;;;;;6.7;6.0;;;;;;;23.3;48.2;101560;;;;
2021/07/23 11:26:36;;;;;;;6.7;6.0;;;;;;;23.4;50.0;101550;;;;
2021/07/23 11:30:36;;;;;;;6.7;6.0;;;;;;;23.3;45.7;101540;;;;
2021/07/23 11:32:35;;;;;;;6.7;6.0;;;;;;;22.9;46.7;101550;;;;
2021/07/23 11:34:40;;;;;;;6.7;6.0;;;;;;;23.0;46.3;101560;;;;
2021/07/23 11:36:36;;;;;;;6.7;6.0;;;;;;;23.3;46.3;101550;;;;
2021/07/23 11:38:35;;;;;;;7.2;6.5;;;;;;;23.4;46.9;101540;;;;
2021/07/23 11:44:36;;;;;;;7.2;6.5;;;;;;;23.1;45.3;101530;;;;
2021/07/23 11:46:36;;;;;;;7.2;6.5;;;;;;;23.4;47.6;101540;;;;
2021/07/23 11:50:36;;;;;;;7.2;6.5;;;;;;;23.6;49.7;101530;;;;
2021/07/23 11:52:36;;;;;;;7.2;6.5;;;;;;;23.5;49.7;101530;;;;
2021/07/23 11:56:36;;;;;;;7.2;6.5;;;;;;;23.7;47.7;101520;;;;
2021/07/23 11:58:35;;;;;;;6.5;5.9;;;;;;;23.9;47.7;101510;;;;
2021/07/23 12:00:36;;;;;;;6.5;5.9;;;;;;;24.0;48.8;101520;;;;
2021/07/23 12:04:41;;;;;;;6.5;5.9;;;;;;;23.9;44.5;101520;;;;
2021/07/23 12:06:39;;;;;;;6.5;5.9;;;;;;;23.8;46.8;101520;;;;
2021/07/23 12:08:35;;;;;;;6.5;5.9;;;;;;;24.0;47.8;101510;;;;
2021/07/23 12:12:36;;;;;;;6.5;5.9;;;;;;;23.9;48.6;101490;;;;
2021/07/23 12:14:36;;;;;;;6.5;5.9;;;;;;;24.1;47.9;101490;;;;
2021/07/23 12:18:35;;;;;;;6.0;5.4;;;;;;;23.9;45.5;101480;;;;
2021/07/23 12:22:35;;;;;;;6.0;5.4;;;;;;;24.3;47.6;101480;;;;
2021/07/23 12:24:35;;;;;;;6.0;5.4;;;;;;;24.5;46.5;101470;;;;
2021/07/23 12:26:36;;;;;;;6.0;5.4;;;;;;;24.6;49.1;101470;;;;
2021/07/23 12:28:36;;;;;;;6.0;5.4;;;;;;;24.1;47.1;101470;;;;
2021/07/23 12:30:37;;;;;;;6.0;5.4;;;;;;;24.4;47.1;101470;;;;
2021/07/23 12:32:35;;;;;;;6.0;5.4;;;;;;;24.2;48.0;101460;;;;
2021/07/23 12:36:35;;;;;;;6.0;5.4;;;;;;;24.6;49.0;101460;;;;
2021/07/23 12:38:35;;;;;;;6.6;5.2;;;;;;;24.4;46.3;101450;;;;
2021/07/23 12:40:35;;;;;;;6.6;5.2;;;;;;;24.2;47.3;101450;;;;
2021/07/23 12:44:36;;;;;;;6.6;5.2;;;;;;;24.5;48.0;101440;;;;
2021/07/23 12:46:36;;;;;;;6.6;5.2;;;;;;;24.3;44.5;101450;;;;
2021/07/23 12:48:36;;;;;;;6.6;5.2;;;;;;;24.5;46.5;101440;;;;
2021/07/23 12:52:35;;;;;;;6.6;5.2;;;;;;;24.4;45.3;101440;;;;
2021/07/23 12:56:37;;;;;;;6.6;5.2;;;;;;;24.2;44.4;101440;;;;
2021/07/23 12:58:35;;;;;;;7.0;5.7;;;;;;;24.4;43.8;101440;;;;
2021/07/23 13:02:36;;;;;;;7.0;5.7;;;;;;;24.2;45.4;101430;;;;
2021/07/23 13:04:36;;;;;;;7.0;5.7;;;;;;;24.4;45.3;101440;;;;
2021/07/23 13:08:37;;;;;;;7.0;5.7;;;;;;;24.5;44.7;101430;;;;
2021/07/23 13:10:37;;;;;;;7.0;5.7;;;;;;;24.4;45.6;101430;;;;
2021/07/23 13:12:35;;;;;;;7.0;5.7;;;;;;;24.6;45.4;101440;;;;
2021/07/23 13:14:36;;;;;;;7.0;5.7;;;;;;;24.3;44.7;101440;;;;
2021/07/23 13:16:36;;;;;;;7.0;5.7;;;;;;;24.5;44.3;101430;;;;
2021/07/23 13:18:35;;;;;;;5.9;5.3;;;;;;;24.8;45.1;101430;;;;
2021/07/23 13:22:36;;;;;;;5.9;5.3;;;;;;;24.7;45.0;101430;;;;
2021/07/23 13:24:36;;;;;;;5.9;5.3;;;;;;;24.6;44.2;101430;;;;
2021/07/23 13:26:35;;;;;;;5.9;5.3;;;;;;;25.1;50.8;101420;;;;
2021/07/23 13:28:36;;;;;;;5.9;5.3;;;;;;;25.3;45.6;101430;;;;
2021/07/23 13:30:36;;;;;;;5.9;5.3;;;;;;;25.0;45.7;101430;;;;
2021/07/23 13:32:35;;;;;;;5.9;5.3;;;;;;;25.2;47.4;101420;;;;
2021/07/23 13:34:36;;;;;;;5.9;5.3;;;;;;;24.9;45.6;101420;;;;
2021/07/23 13:36:46;;;;;;;5.9;5.3;;;;;;;25.0;48.1;101420;;;;
2021/07/23 13:38:37;;;;;;;8.3;6.9;;;;;;;25.3;48.8;101420;;;;
2021/07/23 13:40:36;;;;;;;8.3;6.9;;;;;;;25.4;45.7;101420;;;;
2021/07/23 13:42:35;;;;;;;8.3;6.9;;;;;;;25.2;43.5;101420;;;;
2021/07/23 13:44:36;;;;;;;8.3;6.9;;;;;;;25.0;44.2;101420;;;;
2021/07/23 13:48:35;;;;;;;8.3;6.9;;;;;;;25.1;44.6;101410;;;;
2021/07/23 13:50:35;;;;;;;8.3;6.9;;;;;;;25.2;45.6;101410;;;;
2021/07/23 13:52:36;;;;;;;8.3;6.9;;;;;;;25.3;49.0;101410;;;;
2021/07/23 13:54:37;;;;;;;8.3;6.9;;;;;;;25.4;44.3;101410;;;;
2021/07/23 13:56:37;;;;;;;8.3;6.9;;;;;;;25.6;46.4;101410;;;;
2021/07/23 13:58:35;;;;;;;8.2;6.4;;;;;;;25.2;42.3;101410;;;;
2021/07/23 14:00:45;;;;;;;8.2;6.4;;;;;;;25.1;43.1;101410;;;;
2021/07/23 14:02:38;;;;;;;8.2;6.4;;;;;;;25.2;42.9;101400;;;;
2021/07/23 14:04:36;;;;;;;8.2;6.4;;;;;;;25.3;44.0;101400;;;;
2021/07/23 14:06:36;;;;;;;8.2;6.4;;;;;;;25.7;46.3;101410;;;;
2021/07/23 14:10:36;;;;;;;8.2;6.4;;;;;;;25.5;41.1;101400;;;;
2021/07/23 14:12:36;;;;;;;8.2;6.4;;;;;;;25.7;42.7;101400;;;;
2021/07/23 14:14:35;;;;;;;8.2;6.4;;;;;;;25.5;44.5;101400;;;;
2021/07/23 14:16:36;;;;;;;8.2;6.4;;;;;;;25.6;42.7;101400;;;;
2021/07/23 14:18:35;;;;;;;6.8;6.0;;;;;;;25.7;41.5;101390;;;;
2021/07/23 14:20:36;;;;;;;6.8;6.0;;;;;;;25.9;43.0;101390;;;;
2021/07/23 14:22:36;;;;;;;6.8;6.0;;;;;;;25.8;42.7;101380;;;;
2021/07/23 14:24:36;;;;;;;6.8;6.0;;;;;;;26.0;42.2;101380;;;;
2021/07/23 14:26:36;;;;;;;6.8;6.0;;;;;;;26.1;41.2;101380;;;;
2021/07/23 14:30:36;;;;;;;6.8;6.0;;;;;;;25.6;41.9;101380;;;;
2021/07/23 14:32:35;;;;;;;6.8;6.0;;;;;;;25.8;42.3;101380;;;;
2021/07/23 14:34:36;;;;;;;6.8;6.0;;;;;;;25.9;41.4;101380;;;;
2021/07/23 14:36:36;;;;;;;6.8;6.0;;;;;;;26.2;41.6;101380;;;;
2021/07/23 14:38:35;;;;;;;8.9;6.8;;;;;;;26.6;42.0;101370;;;;
2021/07/23 14:40:35;;;;;;;8.9;6.8;;;;;;;26.8;39.8;101370;;;;
2021/07/23 14:42:35;;;;;;;8.9;6.8;;;;;;;26.9;42.9;101370;;;;
2021/07/23 14:46:36;;;;;;;8.9;6.8;;;;;;;27.3;42.7;101370;;;;
2021/07/23 14:48:35;;;;;;;8.9;6.8;;;;;;;27.4;43.6;101370;;;;
2021/07/23 14:50:35;;;;;;;8.9;6.8;;;;;;;27.6;42.8;101370;;;;
2021/07/23 14:52:35;;;;;;;8.9;6.8;;;;;;;27.4;39.6;101380;;;;
2021/07/23 14:54:36;;;;;;;8.9;6.8;;;;;;;27.8;41.7;101380;;;;
2021/07/23 14:58:37;;;;;;;7.3;5.9;;;;;;;27.6;39.4;101370;;;;
2021/07/23 15:00:36;;;;;;;7.3;5.9;;;;;;;27.8;40.8;101370;;;;
2021/07/23 15:02:36;;;;;;;7.3;5.9;;;;;;;27.5;38.7;101360;;;;
2021/07/23 15:04:36;;;;;;;7.3;5.9;;;;;;;27.8;42.2;101360;;;;
2021/07/23 15:06:36;;;;;;;7.3;5.9;;;;;;;27.9;38.1;101360;;;;
2021/07/23 15:08:36;;;;;;;7.3;5.9;;;;;;;28.0;38.8;101350;;;;
2021/07/23 15:10:36;;;;;;;7.3;5.9;;;;;;;28.1;39.5;101350;;;;
2021/07/23 15:12:36;;;;;;;7.3;5.9;;;;;;;28.4;37.6;101350;;;;
2021/07/23 15:14:36;;;;;;;7.3;5.9;;;;;;;28.2;38.5;101340;;;;
2021/07/23 15:16:36;;;;;;;7.3;5.9;;;;;;;28.9;41.0;101350;;;;
2021/07/23 15:18:36;;;;;;;8.0;6.9;;;;;;;28.5;37.1;101350;;;;
2021/07/23 15:20:36;;;;;;;8.0;6.9;;;;;;;28.9;41.7;101350;;;;
2021/07/23 15:22:35;;;;;;;8.0;6.9;;;;;;;28.4;38.0;101340;;;;
2021/07/23 15:24:36;;;;;;;8.0;6.9;;;;;;;28.8;39.1;101340;;;;
2021/07/23 15:26:35;;;;;;;8.0;6.9;;;;;;;29.4;38.0;101340;;;;
2021/07/23 15:28:36;;;;;;;8.0;6.9;;;;;;;29.2;38.6;101350;;;;
2021/07/23 15:30:37;;;;;;;8.0;6.9;;;;;;;29.0;37.1;101350;;;;
2021/07/23 15:32:36;;;;;;;8.0;6.9;;;;;;;29.2;38.9;101340;;;;
2021/07/23 15:34:36;;;;;;;8.0;6.9;;;;;;;29.6;36.5;101340;;;;
2021/07/23 15:40:39;;;;;;;7.2;6.5;;;;;;;29.8;37.4;101320;;;;
2021/07/23 15:42:36;;;;;;;7.2;6.5;;;;;;;29.9;37.8;101320;;;;
2021/07/23 15:44:36;;;;;;;7.2;6.5;;;;;;;29.6;36.3;101320;;;;
2021/07/23 15:46:36;;;;;;;7.2;6.5;;;;;;;29.3;36.7;101320;;;;
2021/07/23 15:48:35;;;;;;;7.2;6.5;;;;;;;28.7;36.2;101310;;;;
2021/07/23 15:50:35;;;;;;;7.2;6.5;;;;;;;29.4;36.6;101310;;;;
2021/07/23 15:52:35;;;;;;;7.2;6.5;;;;;;;29.2;36.2;101320;;;;
2021/07/23 15:54:35;;;;;;;7.2;6.5;;;;;;;29.3;37.3;101320;;;;
2021/07/23 15:56:35;;;;;;;7.2;6.5;;;;;;;29.1;36.0;101320;;;;
2021/07/23 15:58:35;;;;;;;8.1;6.7;;;;;;;29.3;37.4;101310;;;;
2021/07/23 16:00:37;;;;;;;8.1;6.7;;;;;;;29.1;36.6;101310;;;;
2021/07/23 16:02:36;;;;;;;8.1;6.7;;;;;;;29.3;37.9;101310;;;;
2021/07/23 16:04:36;;;;;;;8.1;6.7;;;;;;;29.0;36.1;101300;;;;
2021/07/23 16:06:36;;;;;;;8.1;6.7;;;;;;;29.2;35.0;101300;;;;
2021/07/23 16:08:35;;;;;;;8.1;6.7;;;;;;;29.5;36.1;101300;;;;
2021/07/23 16:10:36;;;;;;;8.1;6.7;;;;;;;29.0;34.9;101290;;;;
2021/07/23 16:12:36;;;;;;;8.1;6.7;;;;;;;29.1;38.5;101300;;;;
2021/07/23 16:14:36;;;;;;;8.1;6.7;;;;;;;29.2;36.4;101300;;;;
2021/07/23 16:16:42;;;;;;;8.1;6.7;;;;;;;29.7;40.0;101300;;;;
2021/07/23 16:18:36;;;;;;;21.3;19.2;;;;;;;30.2;37.3;101290;;;;
2021/07/23 16:20:37;;;;;;;21.3;19.2;;;;;;;29.9;35.7;101300;;;;
2021/07/23 16:22:33;;;;;;;21.3;19.2;;;;;;;29.9;35.7;101300;;;;
2021/07/23 16:22:43;;;;;;;21.3;19.2;;;;;;;29.3;35.2;101300;;;;
2021/07/23 16:24:35;;;;;;;21.3;19.2;;;;;;;29.5;36.3;101300;;;;
2021/07/23 16:26:14;;;;;;;21.3;19.2;;;;;;;29.5;36.3;101300;;;;
2021/07/23 16:26:42;;;;;;;21.3;19.2;;;;;;;29.3;37.4;101300;;;;
2021/07/23 16:28:06;;;;;;;21.3;19.2;;;;;;;29.3;37.4;101300;;;;
2021/07/23 16:28:37;;;;;;;21.3;19.2;;;;;;;29.8;35.2;101300;;;;
2021/07/23 16:30:36;;;;;;;21.3;19.2;;;;;;;30.3;38.1;101290;;;;
2021/07/23 16:32:35;;;;;;;21.3;19.2;;;;;;;30.5;35.8;101290;;;;
2021/07/23 16:34:35;;;;;;;21.3;19.2;;;;;;;29.4;34.1;101280;;;;
2021/07/23 16:36:37;;;;;;;21.3;19.2;;;;;;;29.0;34.8;101280;;;;
2021/07/23 16:38:35;;;;;;;9.7;7.8;;;;;;;29.3;35.8;101280;;;;
2021/07/23 16:40:36;;;;;;;9.7;7.8;;;;;;;29.4;35.6;101280;;;;
2021/07/23 16:44:35;;;;;;;9.7;7.8;;;;;;;29.3;34.6;101270;;;;
2021/07/23 16:46:36;;;;;;;9.7;7.8;;;;;;;29.0;35.5;101270;;;;
2021/07/23 16:50:36;;;;;;;9.7;7.8;;;;;;;29.6;35.9;101260;;;;
2021/07/23 16:52:36;;;;;;;9.7;7.8;;;;;;;29.3;34.3;101270;;;;
2021/07/23 16:54:36;;;;;;;9.7;7.8;;;;;;;29.2;35.0;101270;;;;
2021/07/23 16:56:36;;;;;;;9.7;7.8;;;;;;;29.1;35.7;101260;;;;
2021/07/23 16:58:35;;;;;;;7.3;6.4;;;;;;;29.2;35.2;101260;;;;
2021/07/23 17:00:36;;;;;;;7.3;6.4;;;;;;;29.5;34.7;101260;;;;
2021/07/23 17:02:36;;;;;;;7.3;6.4;;;;;;;29.2;34.7;101260;;;;
2021/07/23 17:04:36;;;;;;;7.3;6.4;;;;;;;29.0;34.3;101250;;;;
2021/07/23 17:06:36;;;;;;;7.3;6.4;;;;;;;29.2;34.2;101260;;;;
2021/07/23 17:08:36;;;;;;;7.3;6.4;;;;;;;29.0;34.8;101250;;;;
2021/07/23 17:10:36;;;;;;;7.3;6.4;;;;;;;28.9;34.4;101260;;;;
2021/07/23 17:12:36;;;;;;;7.3;6.4;;;;;;;28.8;35.2;101250;;;;
2021/07/23 17:14:36;;;;;;;7.3;6.4;;;;;;;29.1;34.3;101240;;;;
2021/07/23 17:16:36;;;;;;;7.3;6.4;;;;;;;29.5;33.6;101240;;;;
2021/07/23 17:18:36;;;;;;;8.6;7.7;;;;;;;29.3;34.7;101240;;;;
2021/07/23 17:20:36;;;;;;;8.6;7.7;;;;;;;29.1;35.0;101230;;;;
2021/07/23 17:22:38;;;;;;;8.6;7.7;;;;;;;29.5;34.1;101230;;;;
2021/07/23 17:24:36;;;;;;;8.6;7.7;;;;;;;29.1;35.9;101220;;;;
2021/07/23 17:26:36;;;;;;;8.6;7.7;;;;;;;29.0;35.1;101220;;;;
2021/07/23 17:28:36;;;;;;;8.6;7.7;;;;;;;29.1;35.5;101220;;;;